Terminal Aerodrome Forecast
Issued by NWS Billings, MT

Home | Current Version | Previous Version | Graphics & Text | Print | Product List | Glossary On
Versions: 1 2 3 4 5 6 7 8 9 10 11 12 13 14 15 16 17 18 19 20 21 22 23 24 25 26 27 28 29 30 31 32 33 34 35 36 37 38 39 40
000
FTUS45 KBYZ 310357 AAB
TAFMLS
TAF AMD
KMLS 310357Z 3104/3124 29012KT P6SM SKC
     FM310700 26015KT P6SM VCSH FEW020 OVC030
     FM311000 26012KT P6SM VCSH SCT007 OVC010
     FM311400 30020G34KT 4SM -RA OVC012
     FM311900 32020G28KT 4SM -RA SCT012 OVC020=

USA.gov is the U.S. government's official web portal to all federal, state and local government web resources and services.